createdAt,value
2017-11-10T00:02:11.909Z,14.80
2017-11-10T00:04:39.366Z,14.80
2017-11-10T00:07:06.838Z,14.80
2017-11-10T00:09:35.053Z,14.70
2017-11-10T00:12:02.512Z,14.70
2017-11-10T00:14:29.991Z,14.80
2017-11-10T00:16:57.447Z,14.80
2017-11-10T00:19:24.915Z,14.80
2017-11-10T00:21:52.387Z,14.80
2017-11-10T00:24:19.862Z,14.70
2017-11-10T00:26:48.099Z,14.70
2017-11-10T00:29:15.558Z,14.70
2017-11-10T00:31:43.016Z,14.70
2017-11-10T00:34:10.490Z,14.70
2017-11-10T00:36:37.950Z,14.80
2017-11-10T00:39:06.174Z,14.80
2017-11-10T00:41:33.676Z,14.70
2017-11-10T00:44:01.134Z,14.70
2017-11-10T00:46:28.583Z,14.70
2017-11-10T00:48:57.555Z,14.70
2017-11-10T00:51:25.012Z,14.70
2017-11-10T00:53:52.479Z,14.80
2017-11-10T00:56:19.943Z,14.70
2017-11-10T00:58:47.403Z,14.70
2017-11-10T01:01:14.878Z,14.70
2017-11-10T01:03:42.318Z,14.80
2017-11-10T01:06:09.784Z,14.80
2017-11-10T01:08:37.253Z,14.80
2017-11-10T01:11:04.711Z,14.70
2017-11-10T01:13:32.945Z,14.70
2017-11-10T01:16:01.183Z,14.70
2017-11-10T01:18:28.634Z,14.70
2017-11-10T01:20:56.103Z,14.70
2017-11-10T01:23:23.588Z,14.80
2017-11-10T01:25:51.064Z,14.80
2017-11-10T01:28:18.512Z,14.80
2017-11-10T01:30:46.011Z,14.80
2017-11-10T01:33:14.252Z,14.80
2017-11-10T01:35:42.507Z,14.80
2017-11-10T01:38:09.971Z,14.80
2017-11-10T01:40:37.446Z,14.80
2017-11-10T01:43:04.903Z,14.80
2017-11-10T01:45:32.367Z,14.80
2017-11-10T01:47:59.834Z,14.80
2017-11-10T01:50:27.320Z,14.80
2017-11-10T01:52:55.547Z,14.80
2017-11-10T01:55:23.037Z,14.80
2017-11-10T01:57:50.511Z,14.80
2017-11-10T02:00:18.735Z,14.80
2017-11-10T02:02:46.198Z,14.80
2017-11-10T02:05:13.662Z,14.80
2017-11-10T02:07:41.149Z,14.80
2017-11-10T02:10:08.615Z,14.80
2017-11-10T02:12:36.075Z,14.80
2017-11-10T02:20:30.771Z,14.80
2017-11-10T02:22:58.243Z,14.80
2017-11-10T02:25:25.688Z,14.70
2017-11-10T02:27:53.922Z,14.80
2017-11-10T02:30:21.403Z,14.80
2017-11-10T02:32:49.640Z,14.80
2017-11-10T02:35:17.109Z,14.70
2017-11-10T02:37:45.342Z,14.80
2017-11-10T02:40:13.563Z,14.80
2017-11-10T02:42:41.042Z,14.80
2017-11-10T02:45:08.538Z,14.80
2017-11-10T02:47:36.764Z,14.80
2017-11-10T02:50:07.145Z,14.70
2017-11-10T02:52:35.379Z,14.80
2017-11-10T02:55:03.625Z,14.80
2017-11-10T02:57:31.099Z,14.80
2017-11-10T02:59:58.559Z,14.80
2017-11-10T03:02:26.032Z,14.80
2017-11-10T03:04:53.516Z,14.80
2017-11-10T03:07:21.766Z,14.80
2017-11-10T03:09:49.255Z,14.80
2017-11-10T03:12:17.489Z,14.70
2017-11-10T03:14:45.731Z,14.80
2017-11-10T03:17:13.204Z,14.80
2017-11-10T03:19:40.667Z,14.70
2017-11-10T03:22:08.135Z,14.80
2017-11-10T03:24:35.607Z,14.70
2017-11-10T03:27:03.104Z,14.80
2017-11-10T03:29:30.562Z,14.70
2017-11-10T03:31:58.803Z,14.70
2017-11-10T03:34:26.280Z,14.70
2017-11-10T03:36:54.535Z,14.70
2017-11-10T03:39:22.037Z,14.70
2017-11-10T03:41:49.519Z,14.80
2017-11-10T03:44:16.980Z,14.70
2017-11-10T03:46:44.438Z,14.70
2017-11-10T03:49:11.939Z,14.80
2017-11-10T03:51:39.410Z,14.80
2017-11-10T03:54:07.728Z,14.80
2017-11-10T03:56:35.248Z,14.80
2017-11-10T03:59:02.777Z,14.80
2017-11-10T04:01:30.268Z,14.80
2017-11-10T04:03:57.728Z,14.70
2017-11-10T04:06:25.984Z,14.80
2017-11-10T04:08:53.463Z,14.80
2017-11-10T04:11:21.693Z,14.80
2017-11-10T04:13:49.176Z,14.80
2017-11-10T04:16:16.634Z,14.70
2017-11-10T04:18:44.889Z,14.80
2017-11-10T04:21:12.358Z,14.80
2017-11-10T04:23:39.810Z,14.80
2017-11-10T04:26:07.272Z,14.70
2017-11-10T04:28:34.760Z,14.70
2017-11-10T04:31:03.011Z,14.70
2017-11-10T04:33:30.490Z,14.70
2017-11-10T04:35:58.732Z,14.70
2017-11-10T04:38:26.213Z,14.70
2017-11-10T04:40:53.675Z,14.70
2017-11-10T04:43:21.902Z,14.70
2017-11-10T04:45:49.408Z,14.70
2017-11-10T04:48:17.635Z,14.70
2017-11-10T04:50:45.103Z,14.70
2017-11-10T04:53:12.557Z,14.70
2017-11-10T04:55:40.035Z,14.70
2017-11-10T04:58:08.263Z,14.70
2017-11-10T05:00:35.755Z,14.70
2017-11-10T05:03:03.211Z,14.70
2017-11-10T05:05:30.688Z,14.70
2017-11-10T05:07:58.165Z,14.70
2017-11-10T05:10:25.636Z,14.70
2017-11-10T05:12:53.131Z,14.70
2017-11-10T05:15:21.350Z,14.70
2017-11-10T05:17:49.594Z,14.70
2017-11-10T05:20:17.081Z,14.70
2017-11-10T05:22:44.595Z,14.70
2017-11-10T05:25:12.815Z,14.70
2017-11-10T05:27:41.084Z,14.70
2017-11-10T05:30:09.369Z,14.70
2017-11-10T05:32:37.615Z,14.70
2017-11-10T05:35:05.123Z,14.70
2017-11-10T05:37:33.396Z,14.60
2017-11-10T05:40:00.863Z,14.60
2017-11-10T05:42:29.131Z,14.70
2017-11-10T05:44:56.591Z,14.70
2017-11-10T05:47:24.863Z,14.70
2017-11-10T05:49:53.121Z,14.70
2017-11-10T05:52:21.357Z,14.70
2017-11-10T05:54:48.875Z,14.70
2017-11-10T05:57:16.334Z,14.60
2017-11-10T05:59:43.851Z,14.60
2017-11-10T06:02:11.324Z,14.60
2017-11-10T06:04:38.787Z,14.70
2017-11-10T06:07:07.026Z,14.70
2017-11-10T06:09:34.528Z,14.60
2017-11-10T06:12:02.013Z,14.70
2017-11-10T06:14:29.512Z,14.60
2017-11-10T06:16:56.995Z,14.70
2017-11-10T06:19:25.261Z,14.60
2017-11-10T06:21:52.720Z,14.60
2017-11-10T06:24:20.983Z,14.60
2017-11-10T06:26:48.472Z,14.60
2017-11-10T06:29:15.931Z,14.70
2017-11-10T06:31:43.384Z,14.60
2017-11-10T06:34:11.656Z,14.60
2017-11-10T06:36:39.900Z,14.70
2017-11-10T06:39:07.395Z,14.60
2017-11-10T06:41:35.667Z,14.60
2017-11-10T06:44:03.901Z,14.60
2017-11-10T06:46:31.363Z,14.60
2017-11-10T06:48:59.630Z,14.60
2017-11-10T06:51:27.839Z,14.70
2017-11-10T06:53:55.311Z,14.70
2017-11-10T06:56:22.942Z,14.70
2017-11-10T06:58:50.428Z,14.70
2017-11-10T07:01:17.939Z,14.60
2017-11-10T07:03:45.399Z,14.70
2017-11-10T07:06:12.898Z,14.70
2017-11-10T07:08:41.148Z,14.70
2017-11-10T07:11:08.631Z,14.70
2017-11-10T07:13:36.929Z,14.70
2017-11-10T07:16:05.186Z,14.70
2017-11-10T07:18:33.416Z,14.70
2017-11-10T07:21:00.897Z,14.70
2017-11-10T07:23:29.120Z,14.70
2017-11-10T07:25:56.573Z,14.70
2017-11-10T07:28:24.787Z,14.80
2017-11-10T07:30:52.271Z,14.80
2017-11-10T07:33:19.724Z,14.80
2017-11-10T07:35:47.195Z,14.80
2017-11-10T07:38:15.431Z,14.80
2017-11-10T07:40:42.896Z,14.80
2017-11-10T07:43:10.371Z,14.90
2017-11-10T07:45:37.827Z,15.00
2017-11-10T07:48:05.327Z,15.00
2017-11-10T07:50:33.574Z,15.00
2017-11-10T07:53:01.810Z,15.00
2017-11-10T07:55:29.287Z,15.00
2017-11-10T07:57:56.755Z,15.10
2017-11-10T08:00:24.215Z,15.10
2017-11-10T08:02:53.194Z,15.10
2017-11-10T08:05:20.663Z,15.10
2017-11-10T08:07:48.124Z,15.10
2017-11-10T08:10:15.579Z,15.20
2017-11-10T08:12:43.089Z,15.20
2017-11-10T08:15:10.543Z,15.30
2017-11-10T08:17:39.612Z,15.40
2017-11-10T08:20:07.139Z,15.50
2017-11-10T08:22:34.636Z,15.50
2017-11-10T08:25:02.147Z,15.60
2017-11-10T08:27:29.635Z,15.60
2017-11-10T08:29:57.141Z,15.60
2017-11-10T08:32:24.651Z,15.70
2017-11-10T08:34:52.120Z,15.60
2017-11-10T08:37:19.643Z,15.60
2017-11-10T08:39:47.123Z,15.70
2017-11-10T08:42:14.787Z,15.70
2017-11-10T08:44:42.259Z,15.80
2017-11-10T08:47:09.781Z,15.80
2017-11-10T08:49:37.240Z,15.70
2017-11-10T08:52:04.743Z,15.70
2017-11-10T08:54:32.975Z,15.80
2017-11-10T08:57:00.432Z,15.80
2017-11-10T08:59:27.931Z,15.80
2017-11-10T09:01:56.159Z,15.80
2017-11-10T09:04:23.668Z,15.70
2017-11-10T09:06:51.900Z,15.80
2017-11-10T09:09:19.381Z,15.80
2017-11-10T09:11:47.613Z,15.70
2017-11-10T09:14:15.139Z,15.70
2017-11-10T09:16:42.592Z,15.70
2017-11-10T09:19:10.057Z,15.70
2017-11-10T09:21:37.510Z,15.60
2017-11-10T09:24:05.739Z,15.60
2017-11-10T09:26:33.223Z,15.60
2017-11-10T09:29:06.910Z,15.60
2017-11-10T09:31:36.822Z,15.60
2017-11-10T09:34:19.964Z,15.60
2017-11-10T09:36:53.788Z,15.70
2017-11-10T09:42:38.467Z,15.60
2017-11-10T09:45:11.522Z,15.70
2017-11-10T09:47:44.702Z,15.80
2017-11-10T09:50:17.838Z,15.80
2017-11-10T09:52:50.929Z,16.00
2017-11-10T09:55:24.829Z,16.10
2017-11-10T10:01:11.640Z,16.30
2017-11-10T10:03:44.848Z,16.30
2017-11-10T10:06:18.669Z,16.30
2017-11-10T10:08:47.440Z,16.30
2017-11-10T10:11:30.580Z,16.30
2017-11-10T10:14:03.677Z,16.30
2017-11-10T10:16:36.876Z,16.30
2017-11-10T10:19:10.760Z,16.20
2017-11-10T10:21:43.855Z,16.20
2017-11-10T10:24:12.097Z,16.30
2017-11-10T10:26:39.592Z,16.30
2017-11-10T10:29:07.827Z,16.20
2017-11-10T10:31:35.281Z,16.20
2017-11-10T10:34:02.732Z,16.10
2017-11-10T10:36:30.228Z,16.10
2017-11-10T10:38:58.456Z,16.10
2017-11-10T10:41:26.684Z,16.00
2017-11-10T10:43:54.212Z,16.00
2017-11-10T10:46:21.688Z,15.90
2017-11-10T10:48:49.168Z,16.00
2017-11-10T10:51:17.442Z,16.00
2017-11-10T10:53:45.707Z,15.90
2017-11-10T10:56:13.957Z,16.00
2017-11-10T10:58:41.424Z,16.00
2017-11-10T11:01:08.908Z,16.00
2017-11-10T11:03:36.361Z,16.20
2017-11-10T11:06:04.624Z,16.40
2017-11-10T11:08:32.856Z,16.40
2017-11-10T11:11:00.318Z,16.40
2017-11-10T11:13:27.801Z,16.40
2017-11-10T11:15:55.273Z,16.40
2017-11-10T11:18:23.520Z,16.40
2017-11-10T11:20:51.011Z,16.40
2017-11-10T11:23:19.269Z,16.50
2017-11-10T11:25:46.761Z,16.50
2017-11-10T11:28:15.023Z,17.10
2017-11-10T11:30:43.267Z,17.20
2017-11-10T11:33:10.731Z,17.20
2017-11-10T11:35:38.288Z,17.10
2017-11-10T11:38:05.726Z,17.10
2017-11-10T11:40:33.224Z,17.60
2017-11-10T11:43:00.692Z,17.60
2017-11-10T11:48:18.939Z,17.20
2017-11-10T11:50:46.415Z,16.90
2017-11-10T11:53:14.671Z,16.70
2017-11-10T11:55:42.130Z,16.60
2017-11-10T11:58:09.799Z,16.70
2017-11-10T12:00:37.276Z,16.60
2017-11-10T12:03:04.783Z,16.40
2017-11-10T12:05:32.270Z,16.40
2017-11-10T12:08:00.527Z,16.30
2017-11-10T12:10:27.976Z,16.30
2017-11-10T12:12:55.454Z,16.30
2017-11-10T12:15:22.932Z,16.30
2017-11-10T12:17:51.176Z,16.10
2017-11-10T12:20:19.336Z,16.10
2017-11-10T12:22:46.832Z,16.10
2017-11-10T12:25:14.354Z,16.00
2017-11-10T12:27:41.847Z,16.00
2017-11-10T12:30:10.089Z,15.90
2017-11-10T12:32:37.563Z,15.90
2017-11-10T12:35:05.033Z,15.90
2017-11-10T12:37:33.282Z,15.80
2017-11-10T12:40:00.760Z,15.80
2017-11-10T12:42:28.236Z,15.80
2017-11-10T12:44:56.482Z,15.80
2017-11-10T12:47:23.932Z,15.80
2017-11-10T12:49:51.424Z,15.70
2017-11-10T12:52:19.654Z,15.80
2017-11-10T12:54:47.872Z,16.00
2017-11-10T12:57:16.147Z,16.00
2017-11-10T12:59:44.378Z,16.10
2017-11-10T13:02:12.608Z,16.10
2017-11-10T13:04:40.844Z,16.40
2017-11-10T13:07:08.334Z,16.40
2017-11-10T13:09:36.562Z,16.80
2017-11-10T13:12:04.780Z,16.80
2017-11-10T13:14:33.023Z,16.70
2017-11-10T13:17:00.513Z,16.70
2017-11-10T13:19:27.955Z,16.80
2017-11-10T13:21:55.438Z,16.70
2017-11-10T13:24:22.899Z,16.70
2017-11-10T13:26:51.154Z,17.10
2017-11-10T13:29:18.602Z,17.10
2017-11-10T13:31:46.068Z,17.20
2017-11-10T13:34:13.542Z,17.10
2017-11-10T13:36:41.820Z,18.00
2017-11-10T13:39:10.045Z,18.80
2017-11-10T13:41:37.555Z,18.80
2017-11-10T13:44:05.031Z,18.70
2017-11-10T13:46:32.496Z,18.30
2017-11-10T13:49:00.744Z,17.50
2017-11-10T13:51:28.211Z,17.50
2017-11-10T13:53:55.667Z,17.50
2017-11-10T13:56:23.118Z,17.20
2017-11-10T13:58:51.361Z,16.80
2017-11-10T14:01:18.802Z,16.80
2017-11-10T14:03:46.275Z,16.70
2017-11-10T14:06:13.749Z,16.50
2017-11-10T14:08:41.210Z,16.40
2017-11-10T14:11:08.687Z,16.30
2017-11-10T14:13:36.927Z,16.30
2017-11-10T14:16:04.403Z,16.30
2017-11-10T14:18:31.855Z,16.30
2017-11-10T14:20:59.335Z,16.30
2017-11-10T14:23:26.795Z,16.20
2017-11-10T14:25:55.012Z,16.70
2017-11-10T14:28:22.507Z,16.70
2017-11-10T14:30:49.964Z,17.10
2017-11-10T14:33:17.418Z,17.20
2017-11-10T14:35:44.888Z,17.20
2017-11-10T14:38:13.129Z,17.10
2017-11-10T14:40:40.578Z,17.10
2017-11-10T14:43:08.034Z,16.90
2017-11-10T14:45:35.497Z,16.80
2017-11-10T14:48:02.950Z,16.90
2017-11-10T14:50:30.411Z,17.00
2017-11-10T14:52:57.862Z,17.20
2017-11-10T14:55:25.342Z,17.30
2017-11-10T14:57:52.830Z,17.50
2017-11-10T15:00:20.658Z,17.50
2017-11-10T15:02:48.119Z,17.30
2017-11-10T15:05:15.595Z,17.10
2017-11-10T15:07:43.826Z,16.60
2017-11-10T15:10:11.311Z,16.60
2017-11-10T15:12:38.758Z,16.50
2017-11-10T15:15:06.226Z,16.30
2017-11-10T15:17:35.178Z,16.00
2017-11-10T15:20:02.674Z,16.00
2017-11-10T15:22:30.179Z,16.00
2017-11-10T15:24:58.427Z,15.70
2017-11-10T15:27:25.870Z,15.70
2017-11-10T15:29:53.339Z,15.70
2017-11-10T15:32:20.812Z,15.60
2017-11-10T15:34:49.103Z,15.50
2017-11-10T15:37:17.324Z,15.40
2017-11-10T15:39:44.806Z,15.40
2017-11-10T15:42:12.263Z,15.40
2017-11-10T15:44:39.734Z,15.40
2017-11-10T15:47:07.971Z,15.30
2017-11-10T15:49:36.197Z,15.20
2017-11-10T15:52:03.664Z,15.20
2017-11-10T15:54:31.122Z,15.10
2017-11-10T15:56:58.661Z,15.10
2017-11-10T15:59:26.086Z,15.10
2017-11-10T16:01:53.579Z,15.00
2017-11-10T16:04:21.801Z,15.00
2017-11-10T16:06:50.027Z,14.90
2017-11-10T16:09:17.511Z,14.90
2017-11-10T16:11:45.742Z,14.90
2017-11-10T16:14:13.187Z,14.80
2017-11-10T16:16:40.655Z,14.80
2017-11-10T16:19:08.119Z,14.80
2017-11-10T16:21:35.574Z,14.80
2017-11-10T16:24:03.035Z,14.80
2017-11-10T16:26:30.509Z,14.80
2017-11-10T16:28:58.019Z,14.70
2017-11-10T16:31:26.223Z,14.70
2017-11-10T16:33:54.459Z,14.70
2017-11-10T16:36:21.946Z,14.70
2017-11-10T16:38:49.436Z,14.70
2017-11-10T16:41:16.895Z,14.70
2017-11-10T16:43:44.419Z,14.60
2017-11-10T16:46:11.972Z,14.60
2017-11-10T16:48:39.407Z,14.70
2017-11-10T16:51:06.861Z,14.60
2017-11-10T16:53:34.342Z,14.60
2017-11-10T16:56:01.803Z,14.50
2017-11-10T16:58:29.308Z,14.60
2017-11-10T17:00:57.578Z,14.50
2017-11-10T17:03:25.833Z,14.50
2017-11-10T17:05:54.071Z,14.50
2017-11-10T17:08:22.286Z,14.40
2017-11-10T17:10:49.773Z,14.40
2017-11-10T17:13:17.215Z,14.40
2017-11-10T17:15:44.677Z,14.40
2017-11-10T17:18:12.118Z,14.30
2017-11-10T17:20:40.359Z,14.30
2017-11-10T17:23:07.845Z,14.30
2017-11-10T17:25:35.299Z,14.40
2017-11-10T17:28:02.745Z,14.30
2017-11-10T17:30:30.203Z,14.30
2017-11-10T17:32:57.654Z,14.30
2017-11-10T17:35:25.732Z,14.30
2017-11-10T17:37:53.188Z,14.30
2017-11-10T17:40:20.649Z,14.30
2017-11-10T17:42:48.100Z,14.30
2017-11-10T17:45:15.551Z,14.20
2017-11-10T17:47:43.003Z,14.20
2017-11-10T17:50:10.488Z,14.20
2017-11-10T17:52:37.944Z,14.20
2017-11-10T17:55:05.390Z,14.20
2017-11-10T17:57:32.843Z,14.20
2017-11-10T18:00:00.318Z,14.20
2017-11-10T18:02:27.778Z,14.20
2017-11-10T18:04:56.031Z,14.10
2017-11-10T18:07:23.470Z,14.10
2017-11-10T18:09:50.944Z,14.00
2017-11-10T18:12:18.423Z,14.00
2017-11-10T18:14:45.885Z,14.00
2017-11-10T18:17:14.111Z,14.00
2017-11-10T18:19:41.572Z,14.00
2017-11-10T18:22:09.026Z,14.00
2017-11-10T18:24:36.492Z,14.00
2017-11-10T18:27:03.968Z,13.90
2017-11-10T18:29:31.440Z,13.90
2017-11-10T18:31:58.890Z,13.90
2017-11-10T18:34:26.352Z,13.80
2017-11-10T18:36:53.807Z,13.80
2017-11-10T18:39:21.242Z,13.80
2017-11-10T18:41:48.710Z,13.80
2017-11-10T18:44:16.158Z,13.80
2017-11-10T18:46:43.631Z,13.80
2017-11-10T18:49:16.746Z,13.80
2017-11-10T18:51:44.986Z,13.70
2017-11-10T18:54:12.428Z,13.60
2017-11-10T18:56:39.899Z,13.70
2017-11-10T18:59:07.356Z,13.60
2017-11-10T19:01:34.813Z,13.60
2017-11-10T19:04:02.274Z,13.60
2017-11-10T19:06:29.743Z,13.60
2017-11-10T19:08:57.199Z,13.50
2017-11-10T19:11:24.651Z,13.50
2017-11-10T19:13:52.102Z,13.50
2017-11-10T19:16:19.547Z,13.40
2017-11-10T19:18:47.077Z,13.40
2017-11-10T19:21:14.552Z,13.40
2017-11-10T19:23:42.007Z,13.30
2017-11-10T19:26:09.470Z,13.30
2017-11-10T19:28:36.940Z,13.30
2017-11-10T19:31:04.392Z,13.30
2017-11-10T19:33:31.858Z,13.30
2017-11-10T19:35:59.338Z,13.20
2017-11-10T19:38:26.811Z,13.20
2017-11-10T19:40:55.034Z,13.20
2017-11-10T19:43:22.515Z,13.20
2017-11-10T19:45:49.991Z,13.20
2017-11-10T19:48:17.458Z,13.20
2017-11-10T19:50:45.685Z,13.20
2017-11-10T19:53:13.153Z,13.20
2017-11-10T19:55:40.614Z,13.10
2017-11-10T19:58:08.087Z,13.10
2017-11-10T20:00:35.551Z,13.10
2017-11-10T20:03:03.079Z,13.10
2017-11-10T20:05:30.539Z,13.00
2017-11-10T20:07:58.016Z,13.10
2017-11-10T20:10:25.484Z,13.10
2017-11-10T20:12:52.943Z,13.10
2017-11-10T20:15:20.400Z,13.10
2017-11-10T20:17:47.873Z,13.10
2017-11-10T20:20:16.104Z,13.00
2017-11-10T20:22:43.583Z,13.00
2017-11-10T20:25:11.043Z,13.10
2017-11-10T20:27:38.512Z,13.00
2017-11-10T20:30:06.753Z,13.00
2017-11-10T20:32:34.220Z,13.00
2017-11-10T20:35:01.709Z,13.10
2017-11-10T20:37:29.200Z,13.00
2017-11-10T20:39:56.658Z,13.00
2017-11-10T20:42:24.131Z,13.00
2017-11-10T20:44:51.588Z,12.90
2017-11-10T20:47:19.041Z,13.00
2017-11-10T20:49:46.487Z,13.00
2017-11-10T20:52:13.950Z,12.90
2017-11-10T20:54:41.417Z,13.00
2017-11-10T20:57:08.866Z,13.00
2017-11-10T20:59:36.340Z,12.90
2017-11-10T21:02:03.806Z,12.90
2017-11-10T21:04:31.324Z,12.90
2017-11-10T21:06:58.779Z,13.00
2017-11-10T21:09:26.234Z,12.90
2017-11-10T21:11:53.711Z,12.90
2017-11-10T21:14:21.175Z,12.90
2017-11-10T21:16:48.679Z,12.90
2017-11-10T21:19:16.902Z,12.90
2017-11-10T21:21:44.359Z,12.90
2017-11-10T21:24:11.841Z,12.90
2017-11-10T21:26:39.304Z,12.80
2017-11-10T21:29:06.759Z,12.80
2017-11-10T21:31:34.217Z,12.80
2017-11-10T21:34:01.691Z,12.80
2017-11-10T21:36:29.149Z,12.80
2017-11-10T21:38:56.615Z,12.80
2017-11-10T21:41:24.846Z,12.80
2017-11-10T21:43:52.333Z,12.80
2017-11-10T21:46:19.803Z,12.80
2017-11-10T21:48:47.261Z,12.70
2017-11-10T21:51:14.711Z,12.80
2017-11-10T21:53:42.163Z,12.80
2017-11-10T21:56:09.619Z,12.80
2017-11-10T21:58:37.114Z,12.80
2017-11-10T22:01:04.559Z,12.80
2017-11-10T22:03:32.783Z,12.80
2017-11-10T22:06:00.247Z,12.80
2017-11-10T22:08:27.705Z,12.80
2017-11-10T22:10:55.175Z,12.80
2017-11-10T22:13:22.662Z,12.70
2017-11-10T22:15:50.159Z,12.70
2017-11-10T22:18:17.622Z,12.80
2017-11-10T22:20:45.103Z,12.70
2017-11-10T22:23:12.554Z,12.70
2017-11-10T22:25:40.051Z,12.70
2017-11-10T22:28:08.323Z,12.70
2017-11-10T22:30:35.807Z,12.70
2017-11-10T22:33:03.253Z,12.70
2017-11-10T22:35:30.711Z,12.70
2017-11-10T22:37:58.164Z,12.70
2017-11-10T22:40:25.668Z,12.60
2017-11-10T22:42:53.115Z,12.70
2017-11-10T22:45:20.594Z,12.70
2017-11-10T22:47:48.055Z,12.60
2017-11-10T22:50:15.510Z,12.70
2017-11-10T22:52:42.974Z,12.70
2017-11-10T22:55:10.461Z,12.70
2017-11-10T22:57:38.703Z,12.70
2017-11-10T23:00:06.166Z,12.70
2017-11-10T23:02:33.673Z,12.70
2017-11-10T23:05:01.114Z,12.70
2017-11-10T23:07:29.372Z,12.70
2017-11-10T23:09:56.833Z,12.70
2017-11-10T23:12:24.303Z,12.70
2017-11-10T23:14:52.534Z,12.70
2017-11-10T23:17:20.026Z,12.70
2017-11-10T23:19:48.247Z,12.70
2017-11-10T23:22:15.715Z,12.70
2017-11-10T23:24:43.188Z,12.70
2017-11-10T23:27:10.687Z,12.60
2017-11-10T23:29:38.171Z,12.60
2017-11-10T23:32:05.696Z,12.60
2017-11-10T23:34:33.922Z,12.60
2017-11-10T23:37:01.372Z,12.60
2017-11-10T23:39:28.824Z,12.60
2017-11-10T23:41:56.277Z,12.60
2017-11-10T23:44:23.742Z,12.50
2017-11-10T23:46:51.195Z,12.50
2017-11-10T23:49:18.664Z,12.60
2017-11-10T23:51:46.110Z,12.50
2017-11-10T23:54:13.567Z,12.50
2017-11-10T23:56:41.027Z,12.50
2017-11-10T23:59:08.505Z,12.50
